Pagrindinis puslapis
METAR-TAF:

METAR-TAF

Oro uostai :

Kefalonija, Graikija

platuma: 38-07N, ilguma: 020-30E, Aukštis: 19 m

Dabartinis oras

Ataskaita buvo paskelbta 44 minutes, ne 18:50 UTC
Ramus vėjas
Temperatūra 24°C
Drėgmė 83%
Slėgis 1016 hPa
Matomumas 10 km arba daugiau
Mažai debesys ne aukštis 1800 ft

METAR: LGKF 191850Z 00000KT 9999 FEW018 24/21 Q1016

Laikas: 22:34 (19:34 UTC)

Prognozė

Ataskaita buvo paskelbta 2 valandos ir 34 minutes, ne 17:00 UTC
Prognozė galioja nuo 19 metu 18 UTC su 20 metu 03 UTC
Vėjas 5 kt nuo kintamojo kryptimis
Matomumas 10 km arba daugiau
Išsisklaidę debesys ne aukštis 1800 ft
Išsisklaidę debesys ne aukštis 8000 ft
Laikinai
nuo 20 metu 00 UTC su 20 metu 03 UTC
Mažai debesys ne aukštis 1800 ft, aukštai iškilę kamuoliniai debesys.
Išsisklaidę debesys ne aukštis 2000 ft

TAF: LGKF 191700Z 1918/2003 VRB05KT 9999 SCT018 SCT080 TEMPO 2000/2003 FEW018TCU SCT020

Orai ataskaitas ir orų prognozės (METAR, TAF).

turimą stotys yra geltonos ir raudonos taškus žemėlapyje.

Perkelti pele per norėdami pamatyti stoties vardą.

Tada spustelėkite, norėdami matyti oro stebėjimo ir prognozės.

Norėdami pakeisti žemėlapį: spustelėkite ant žalios mygtukų su juodo kryžiaus žemyn,; žalią mygtuką su brūkšneliu, jei norite nutolinti; arba žalių rodyklių gretimoms žemėlapius.


METAR-TAF: